createdAt,value
2023-03-16T00:02:13.184Z,21.05
2023-03-16T00:04:55.101Z,18.30
2023-03-16T00:07:42.126Z,20.73
2023-03-16T00:10:17.215Z,22.90
2023-03-16T00:13:04.120Z,22.00
2023-03-16T00:15:37.200Z,16.58
2023-03-16T00:18:24.181Z,23.00
2023-03-16T00:21:06.086Z,20.92
2023-03-16T00:24:01.100Z,18.13
2023-03-16T00:26:49.158Z,18.20
2023-03-16T00:29:25.526Z,22.55
2023-03-16T00:32:12.101Z,23.10
2023-03-16T00:34:45.231Z,23.60
2023-03-16T00:37:34.203Z,19.77
2023-03-16T00:40:08.211Z,18.75
2023-03-16T00:42:55.129Z,20.42
2023-03-16T00:45:28.170Z,17.77
2023-03-16T00:48:15.132Z,18.35
2023-03-16T00:50:48.194Z,21.13
2023-03-16T00:53:35.195Z,20.58
2023-03-16T00:56:10.185Z,16.77
2023-03-16T00:59:04.195Z,26.60
2023-03-16T01:01:53.106Z,19.05
2023-03-16T01:04:34.094Z,20.60
2023-03-16T01:07:21.100Z,19.15
2023-03-16T01:09:54.207Z,19.77
2023-03-16T01:12:41.107Z,15.90
2023-03-16T01:15:15.274Z,16.42
2023-03-16T01:18:02.099Z,25.92
2023-03-16T01:20:35.260Z,22.60
2023-03-16T01:23:27.185Z,23.10
2023-03-16T01:26:07.188Z,22.20
2023-03-16T01:29:01.141Z,21.58
2023-03-16T01:31:57.250Z,21.65
2023-03-16T01:34:44.116Z,23.70
2023-03-16T01:37:17.333Z,19.83
2023-03-16T01:40:04.124Z,23.85
2023-03-16T01:42:44.109Z,22.52
2023-03-16T01:46:09.267Z,23.33
2023-03-16T01:49:15.223Z,20.45
2023-03-16T01:52:28.233Z,22.17
2023-03-16T01:55:07.287Z,20.95
2023-03-16T01:57:54.137Z,23.75
2023-03-16T02:00:44.145Z,19.75
2023-03-16T02:03:36.123Z,23.83
2023-03-16T02:06:19.122Z,22.05
2023-03-16T02:09:07.140Z,23.30
2023-03-16T02:11:48.137Z,19.45
2023-03-16T02:14:42.122Z,21.75
2023-03-16T02:17:33.136Z,19.27
2023-03-16T02:20:46.223Z,21.15
2023-03-16T02:23:33.146Z,17.85
2023-03-16T02:26:27.283Z,18.80
2023-03-16T02:29:50.113Z,23.83
2023-03-16T02:32:31.178Z,19.17
2023-03-16T02:35:25.184Z,21.65
2023-03-16T02:38:12.136Z,22.08
2023-03-16T02:40:46.274Z,22.17
2023-03-16T02:43:40.156Z,22.85
2023-03-16T02:46:14.246Z,22.65
2023-03-16T02:49:13.122Z,22.98
2023-03-16T02:51:54.126Z,23.15
2023-03-16T02:54:48.130Z,27.50
2023-03-16T02:57:35.212Z,21.60
2023-03-16T03:00:17.141Z,23.38
2023-03-16T03:03:05.220Z,22.02
2023-03-16T03:05:45.147Z,23.25
2023-03-16T03:08:32.120Z,31.02
2023-03-16T03:11:13.162Z,24.88
2023-03-16T03:14:08.142Z,36.28
2023-03-16T03:16:55.162Z,36.08
2023-03-16T03:19:28.228Z,29.60
2023-03-16T03:22:15.163Z,30.33
2023-03-16T03:24:48.236Z,30.70
2023-03-16T03:27:35.133Z,33.30
2023-03-16T03:30:08.261Z,37.63
2023-03-16T03:32:55.266Z,28.40
2023-03-16T03:35:36.203Z,29.15
2023-03-16T03:38:23.198Z,24.85
2023-03-16T03:41:01.346Z,27.42
2023-03-16T03:43:48.181Z,29.27
2023-03-16T03:46:21.453Z,28.10
2023-03-16T03:49:10.187Z,25.20
2023-03-16T03:51:43.329Z,24.70
2023-03-16T03:54:30.227Z,28.50
2023-03-16T03:57:11.174Z,21.50
2023-03-16T04:00:05.260Z,24.42
2023-03-16T04:02:52.372Z,24.33
2023-03-16T04:05:27.500Z,26.98
2023-03-16T04:08:14.189Z,23.88
2023-03-16T04:10:47.266Z,26.17
2023-03-16T04:13:34.201Z,22.05
2023-03-16T04:16:08.285Z,25.42
2023-03-16T04:18:55.162Z,23.77
2023-03-16T04:21:29.257Z,18.80
2023-03-16T04:24:16.236Z,19.08
2023-03-16T04:26:51.235Z,23.02
2023-03-16T04:29:38.163Z,22.52
2023-03-16T04:32:13.261Z,22.02
2023-03-16T04:35:03.190Z,22.33
2023-03-16T04:37:43.179Z,19.48
2023-03-16T04:40:37.171Z,17.80
2023-03-16T04:43:24.181Z,20.50
2023-03-16T04:46:04.291Z,22.38
2023-03-16T04:48:58.169Z,17.48
2023-03-16T04:51:47.162Z,19.88
2023-03-16T04:54:20.381Z,17.08
2023-03-16T04:57:07.169Z,17.40
2023-03-16T04:59:48.160Z,19.23
2023-03-16T05:02:35.191Z,21.17
2023-03-16T05:05:15.230Z,16.17
2023-03-16T05:08:02.179Z,18.05
2023-03-16T05:10:35.293Z,17.38
2023-03-16T05:13:22.193Z,13.60
2023-03-16T05:16:02.315Z,18.60
2023-03-16T05:18:56.173Z,22.17
2023-03-16T05:21:50.177Z,18.25
2023-03-16T05:24:37.254Z,25.20
2023-03-16T05:27:10.291Z,22.63
2023-03-16T05:29:57.220Z,23.80
2023-03-16T05:32:38.245Z,24.20
2023-03-16T05:35:25.189Z,17.52
2023-03-16T05:37:58.298Z,22.00
2023-03-16T05:40:45.187Z,21.85
2023-03-16T05:43:18.347Z,23.73
2023-03-16T05:46:05.215Z,20.75
2023-03-16T05:48:38.301Z,20.48
2023-03-16T05:51:25.243Z,22.70
2023-03-16T05:54:00.303Z,24.25
2023-03-16T05:56:47.205Z,29.17
2023-03-16T05:59:27.212Z,20.27
2023-03-16T06:02:21.199Z,21.77
2023-03-16T06:05:08.244Z,22.33
2023-03-16T06:07:49.213Z,24.92
2023-03-16T06:10:43.211Z,23.08
2023-03-16T06:13:30.223Z,24.58
2023-03-16T06:16:03.398Z,23.40
2023-03-16T06:19:09.217Z,17.80
2023-03-16T06:21:42.352Z,19.70
2023-03-16T06:24:29.212Z,24.55
2023-03-16T06:27:09.251Z,23.63
2023-03-16T06:30:03.190Z,17.38
2023-03-16T06:32:52.384Z,19.92
2023-03-16T06:35:25.326Z,21.48
2023-03-16T06:38:12.255Z,19.55
2023-03-16T06:40:52.226Z,17.73
2023-03-16T06:43:46.269Z,21.58
2023-03-16T06:46:33.278Z,20.05
2023-03-16T06:49:06.366Z,25.42
2023-03-16T06:51:53.290Z,19.98
2023-03-16T06:54:26.993Z,45.15
2023-03-16T06:57:13.248Z,20.13
2023-03-16T06:59:46.342Z,23.25
2023-03-16T07:02:33.236Z,20.27
2023-03-16T07:05:13.240Z,16.10
2023-03-16T07:08:01.283Z,22.30
2023-03-16T07:10:41.307Z,24.90
2023-03-16T07:13:35.250Z,24.38
2023-03-16T07:16:22.284Z,17.58
2023-03-16T07:18:55.335Z,19.35
2023-03-16T07:21:46.231Z,17.83
2023-03-16T07:24:19.481Z,22.63
2023-03-16T07:27:06.224Z,19.35
2023-03-16T07:29:39.389Z,21.77
2023-03-16T07:32:26.338Z,20.48
2023-03-16T07:34:59.398Z,17.67
2023-03-16T07:37:46.243Z,19.55
2023-03-16T07:40:20.343Z,20.67
2023-03-16T07:43:07.250Z,19.85
2023-03-16T07:45:40.375Z,17.05
2023-03-16T07:48:27.222Z,17.05
2023-03-16T07:51:00.372Z,20.00
2023-03-16T07:53:48.224Z,15.57
2023-03-16T07:56:21.599Z,15.18
2023-03-16T07:59:15.304Z,16.23
2023-03-16T08:02:09.283Z,18.60
2023-03-16T08:04:56.254Z,18.02
2023-03-16T08:07:29.335Z,14.95
2023-03-16T08:10:17.247Z,18.23
2023-03-16T08:12:58.316Z,15.80
2023-03-16T08:15:52.322Z,16.38
2023-03-16T08:18:39.259Z,16.50
2023-03-16T08:21:12.335Z,14.82
2023-03-16T08:23:59.253Z,16.70
2023-03-16T08:26:39.670Z,19.17
2023-03-16T08:29:33.256Z,14.90
2023-03-16T08:32:20.253Z,14.77
2023-03-16T08:35:00.255Z,18.92
2023-03-16T08:37:50.275Z,15.25
2023-03-16T08:40:31.533Z,15.98
2023-03-16T08:43:18.254Z,21.58
2023-03-16T08:45:52.459Z,18.55
2023-03-16T08:48:43.271Z,15.93
2023-03-16T08:51:24.264Z,17.90
2023-03-16T08:54:18.292Z,15.52
2023-03-16T08:57:05.275Z,16.80
2023-03-16T08:59:38.440Z,21.85
2023-03-16T09:02:25.267Z,16.40
2023-03-16T09:05:05.289Z,16.52
2023-03-16T09:08:00.302Z,16.83
2023-03-16T09:10:54.280Z,16.08
2023-03-16T09:13:42.253Z,15.10
2023-03-16T09:16:24.330Z,18.00
2023-03-16T09:19:14.265Z,14.23
2023-03-16T09:21:54.301Z,13.95
2023-03-16T09:24:41.261Z,17.35
2023-03-16T09:27:22.342Z,15.88
2023-03-16T09:30:11.262Z,21.42
2023-03-16T09:32:45.003Z,14.70
2023-03-16T09:35:35.096Z,14.80
2023-03-16T09:38:16.270Z,15.02
2023-03-16T09:41:32.472Z,15.15
2023-03-16T09:44:22.277Z,14.02
2023-03-16T09:47:18.283Z,13.60
2023-03-16T09:50:09.306Z,17.02
2023-03-16T09:53:07.291Z,13.63
2023-03-16T09:56:07.276Z,14.98
2023-03-16T09:58:54.284Z,17.45
2023-03-16T10:01:48.346Z,13.25
2023-03-16T10:04:35.279Z,14.13
2023-03-16T10:07:27.334Z,13.45
2023-03-16T10:10:21.280Z,14.88
2023-03-16T10:13:17.299Z,13.75
2023-03-16T10:16:09.317Z,13.57
2023-03-16T10:18:59.312Z,18.15
2023-03-16T10:21:55.299Z,12.88
2023-03-16T10:25:01.298Z,16.45
2023-03-16T10:27:46.669Z,14.80
2023-03-16T10:30:41.096Z,17.25
2023-03-16T10:33:46.379Z,14.43
2023-03-16T10:36:49.282Z,16.35
2023-03-16T10:39:43.318Z,15.18
2023-03-16T10:42:34.308Z,14.07
2023-03-16T10:45:49.335Z,14.00
2023-03-16T10:48:45.319Z,14.45
2023-03-16T10:51:44.317Z,14.27
2023-03-16T10:54:40.768Z,15.50
2023-03-16T10:57:30.302Z,13.00
2023-03-16T11:00:16.979Z,12.27
2023-03-16T11:03:06.318Z,13.02
2023-03-16T11:05:41.906Z,17.15
2023-03-16T11:08:33.355Z,15.07
2023-03-16T11:11:17.654Z,14.20
2023-03-16T11:14:06.332Z,16.92
2023-03-16T11:17:04.521Z,13.13
2023-03-16T11:20:07.316Z,15.90
2023-03-16T11:22:43.668Z,13.23
2023-03-16T11:25:33.333Z,13.68
2023-03-16T11:28:13.113Z,15.65
2023-03-16T11:31:00.348Z,14.13
2023-03-16T11:33:41.344Z,11.98
2023-03-16T11:36:47.321Z,13.85
2023-03-16T11:39:59.345Z,15.80
2023-03-16T11:43:08.336Z,16.67
2023-03-16T11:46:23.447Z,15.48
2023-03-16T11:49:19.351Z,16.48
2023-03-16T11:52:35.444Z,15.40
2023-03-16T11:55:51.339Z,14.73
2023-03-16T11:58:54.349Z,13.57
2023-03-16T12:02:23.412Z,14.57
2023-03-16T12:05:44.953Z,16.05
2023-03-16T12:09:05.318Z,14.10
2023-03-16T12:12:12.890Z,13.02
2023-03-16T12:15:21.397Z,13.98
2023-03-16T12:17:57.591Z,14.55
2023-03-16T12:20:57.352Z,14.55
2023-03-16T12:24:07.356Z,14.50
2023-03-16T12:26:56.354Z,14.32
2023-03-16T12:29:55.764Z,13.80
2023-03-16T12:33:07.344Z,14.55
2023-03-16T12:35:41.283Z,15.38
2023-03-16T12:38:51.342Z,15.55
2023-03-16T12:41:42.562Z,16.65
2023-03-16T12:44:46.355Z,14.20
2023-03-16T12:47:49.450Z,13.70
2023-03-16T12:50:36.357Z,13.23
2023-03-16T12:53:11.809Z,14.98
2023-03-16T12:55:58.381Z,15.10
2023-03-16T12:58:41.360Z,15.48
2023-03-16T13:01:38.388Z,13.90
2023-03-16T13:04:30.456Z,15.55
2023-03-16T13:07:39.340Z,15.20
2023-03-16T13:10:27.595Z,14.50
2023-03-16T13:13:01.900Z,13.98
2023-03-16T13:15:56.355Z,14.52
2023-03-16T13:18:31.576Z,13.70
2023-03-16T13:21:45.368Z,15.05
2023-03-16T13:24:24.498Z,16.75
2023-03-16T13:27:22.358Z,15.18
2023-03-16T13:30:00.484Z,14.52
2023-03-16T13:32:47.387Z,13.77
2023-03-16T13:35:30.427Z,15.43
2023-03-16T13:38:36.356Z,15.25
2023-03-16T13:41:23.385Z,13.85
2023-03-16T13:44:03.385Z,13.02
2023-03-16T13:46:51.355Z,12.45
2023-03-16T13:49:32.384Z,12.18
2023-03-16T13:52:33.370Z,15.02
2023-03-16T13:55:16.372Z,13.98
2023-03-16T13:58:10.372Z,16.08
2023-03-16T14:01:10.416Z,16.77
2023-03-16T14:04:04.362Z,14.35
2023-03-16T14:07:10.373Z,12.82
2023-03-16T14:09:59.386Z,13.35
2023-03-16T14:12:32.490Z,13.45
2023-03-16T14:15:20.412Z,15.40
2023-03-16T14:17:53.477Z,14.48
2023-03-16T14:20:41.546Z,14.88
2023-03-16T14:23:28.528Z,13.85
2023-03-16T14:26:24.432Z,14.77
2023-03-16T14:29:09.592Z,16.35
2023-03-16T14:31:56.383Z,15.57
2023-03-16T14:34:41.575Z,13.55
2023-03-16T14:37:28.386Z,13.07
2023-03-16T14:40:08.961Z,12.95
2023-03-16T14:42:55.391Z,12.60
2023-03-16T14:45:28.689Z,11.90
2023-03-16T14:48:27.396Z,12.38
2023-03-16T14:51:02.540Z,13.50
2023-03-16T14:53:49.413Z,14.80
2023-03-16T14:56:29.414Z,14.15
2023-03-16T14:59:16.415Z,15.13
2023-03-16T15:01:56.473Z,12.93
2023-03-16T15:04:50.404Z,14.48
2023-03-16T15:07:41.408Z,13.52
2023-03-16T15:10:40.405Z,15.05
2023-03-16T15:13:51.436Z,12.70
2023-03-16T15:16:26.550Z,13.38
2023-03-16T15:19:13.427Z,15.73
2023-03-16T15:21:46.512Z,14.35
2023-03-16T15:24:35.414Z,16.92
2023-03-16T15:27:15.399Z,14.68
2023-03-16T15:30:09.405Z,15.63
2023-03-16T15:32:56.428Z,22.20
2023-03-16T15:35:29.494Z,16.77
2023-03-16T15:38:25.431Z,19.23
2023-03-16T15:40:59.562Z,17.20
2023-03-16T15:43:46.413Z,17.58
2023-03-16T15:46:27.538Z,17.42
2023-03-16T15:49:21.436Z,19.33
2023-03-16T15:52:08.430Z,16.45
2023-03-16T15:54:42.553Z,16.00
2023-03-16T15:57:29.433Z,19.73
2023-03-16T16:00:02.519Z,15.02
2023-03-16T16:02:49.416Z,15.65
2023-03-16T16:05:29.433Z,15.13
2023-03-16T16:08:23.425Z,16.40
2023-03-16T16:11:15.448Z,18.33
2023-03-16T16:13:56.437Z,15.68
2023-03-16T16:16:58.470Z,18.25
2023-03-16T16:19:45.450Z,25.45
2023-03-16T16:22:25.412Z,19.40
2023-03-16T16:25:19.446Z,20.42
2023-03-16T16:28:13.425Z,17.50
2023-03-16T16:31:00.436Z,22.98
2023-03-16T16:33:37.004Z,21.40
2023-03-16T16:36:26.441Z,18.92
2023-03-16T16:39:00.484Z,20.40
2023-03-16T16:41:49.438Z,22.10
2023-03-16T16:44:40.450Z,19.88
2023-03-16T16:47:34.425Z,23.63
2023-03-16T16:50:28.449Z,25.65
2023-03-16T16:53:08.451Z,23.42
2023-03-16T16:56:02.468Z,20.48
2023-03-16T16:58:57.444Z,25.30
2023-03-16T17:01:51.447Z,26.80
2023-03-16T17:04:38.550Z,26.00
2023-03-16T17:07:13.586Z,29.63
2023-03-16T17:10:00.463Z,22.80
2023-03-16T17:12:35.609Z,32.63
2023-03-16T17:15:31.969Z,32.30
2023-03-16T17:18:32.072Z,26.50
2023-03-16T17:21:23.445Z,31.75
2023-03-16T17:23:57.559Z,33.08
2023-03-16T17:26:51.438Z,34.53
2023-03-16T17:29:48.466Z,28.50
2023-03-16T17:32:35.492Z,25.40
2023-03-16T17:35:12.227Z,32.70
2023-03-16T17:37:58.461Z,28.20
2023-03-16T17:40:33.656Z,37.55
2023-03-16T17:43:25.475Z,33.88
2023-03-16T17:45:58.684Z,34.30
2023-03-16T17:48:45.502Z,31.60
2023-03-16T17:51:28.467Z,31.48
2023-03-16T17:54:15.520Z,36.00
2023-03-16T17:56:48.603Z,32.15
2023-03-16T17:59:35.489Z,27.08
2023-03-16T18:02:08.621Z,20.77
2023-03-16T18:04:55.468Z,33.75
2023-03-16T18:07:28.589Z,31.20
2023-03-16T18:10:25.491Z,32.00
2023-03-16T18:13:08.922Z,28.70
2023-03-16T18:15:56.517Z,26.98
2023-03-16T18:18:32.804Z,25.90
2023-03-16T18:21:31.488Z,31.27
2023-03-16T18:24:04.900Z,28.73
2023-03-16T18:26:52.466Z,24.95
2023-03-16T18:29:26.218Z,23.98
2023-03-16T18:32:13.461Z,27.08
2023-03-16T18:34:46.682Z,27.33
2023-03-16T18:37:37.487Z,22.50
2023-03-16T18:40:18.487Z,31.45
2023-03-16T18:43:05.501Z,33.85
2023-03-16T18:45:38.584Z,36.38
2023-03-16T18:48:31.489Z,30.67
2023-03-16T18:51:12.477Z,46.10
2023-03-16T18:54:06.529Z,33.75
2023-03-16T18:56:54.485Z,48.47
2023-03-16T18:59:27.608Z,60.38
2023-03-16T19:02:33.516Z,54.38
2023-03-16T19:05:30.890Z,48.42
2023-03-16T19:08:26.493Z,40.20
2023-03-16T19:11:14.494Z,49.42
2023-03-16T19:13:47.683Z,54.55
2023-03-16T19:16:34.512Z,46.80
2023-03-16T19:19:08.516Z,52.20
2023-03-16T19:21:59.502Z,41.47
2023-03-16T19:24:47.485Z,46.17
2023-03-16T19:27:48.497Z,57.63
2023-03-16T19:30:37.482Z,55.90
2023-03-16T19:33:27.685Z,106.13
2023-03-16T19:36:28.526Z,93.68
2023-03-16T19:39:01.871Z,86.88
2023-03-16T19:41:49.613Z,75.03
2023-03-16T19:44:26.733Z,70.80
2023-03-16T19:47:31.544Z,72.50
2023-03-16T19:50:05.622Z,54.38
2023-03-16T19:52:53.517Z,56.30
2023-03-16T19:55:38.674Z,55.53
2023-03-16T19:58:46.535Z,52.15
2023-03-16T20:01:32.276Z,65.68
2023-03-16T20:04:29.564Z,66.25
2023-03-16T20:07:09.523Z,72.40
2023-03-16T20:10:03.538Z,147.48
2023-03-16T20:12:50.522Z,118.53
2023-03-16T20:15:33.515Z,128.32
2023-03-16T20:18:23.595Z,106.30
2023-03-16T20:20:57.144Z,104.18
2023-03-16T20:23:44.620Z,73.55
2023-03-16T20:26:32.849Z,67.60
2023-03-16T20:29:40.566Z,78.20
2023-03-16T20:32:30.744Z,72.35
2023-03-16T20:35:35.566Z,78.68
2023-03-16T20:38:16.587Z,74.65
2023-03-16T20:41:04.529Z,87.38
2023-03-16T20:43:45.520Z,66.80
2023-03-16T20:46:42.541Z,68.22
2023-03-16T20:49:29.515Z,58.17
2023-03-16T20:52:03.953Z,60.88
2023-03-16T20:54:50.511Z,58.40
2023-03-16T20:57:29.771Z,68.75
2023-03-16T21:00:27.535Z,73.53
2023-03-16T21:03:01.782Z,77.60
2023-03-16T21:05:48.574Z,88.63
2023-03-16T21:08:29.604Z,77.70
2023-03-16T21:11:33.544Z,68.00
2023-03-16T21:14:38.523Z,73.05
2023-03-16T21:17:25.904Z,69.05
2023-03-16T21:20:25.529Z,70.50
2023-03-16T21:22:58.653Z,71.90
2023-03-16T21:25:54.534Z,70.80
2023-03-16T21:28:35.522Z,63.80
2023-03-16T21:31:24.588Z,55.10
2023-03-16T21:34:06.553Z,65.20
2023-03-16T21:36:53.576Z,71.40
2023-03-16T21:39:28.656Z,61.70
2023-03-16T21:42:15.536Z,62.50
2023-03-16T21:44:48.638Z,58.58
2023-03-16T21:47:35.649Z,63.70
2023-03-16T21:50:08.640Z,71.47
2023-03-16T21:52:57.556Z,58.75
2023-03-16T21:55:40.571Z,57.38
2023-03-16T21:58:35.555Z,57.45
2023-03-16T22:02:01.272Z,59.03
2023-03-16T22:04:55.553Z,52.75
2023-03-16T22:07:43.546Z,66.57
2023-03-16T22:10:21.687Z,67.15
2023-03-16T22:13:08.538Z,82.85
2023-03-16T22:15:42.569Z,92.20
2023-03-16T22:18:38.540Z,63.35
2023-03-16T22:21:36.410Z,51.83
2023-03-16T22:24:26.539Z,49.03
2023-03-16T22:27:07.545Z,53.55
2023-03-16T22:29:57.567Z,47.80
2023-03-16T22:32:30.699Z,38.42
2023-03-16T22:35:32.579Z,44.05
2023-03-16T22:38:08.796Z,37.25
2023-03-16T22:40:55.571Z,41.20
2023-03-16T22:43:42.665Z,38.13
2023-03-16T22:46:33.565Z,39.60
2023-03-16T22:49:08.197Z,40.22
2023-03-16T22:51:55.577Z,40.13
2023-03-16T22:54:40.681Z,44.60
2023-03-16T22:57:34.594Z,47.63
2023-03-16T23:00:28.542Z,39.13
2023-03-16T23:03:34.578Z,44.55
2023-03-16T23:06:33.634Z,41.00
2023-03-16T23:09:21.577Z,44.88
2023-03-16T23:11:59.552Z,43.50
2023-03-16T23:14:47.628Z,52.67
2023-03-16T23:17:27.104Z,57.45
2023-03-16T23:20:24.616Z,64.85
2023-03-16T23:22:58.958Z,60.28
2023-03-16T23:25:45.574Z,58.28
2023-03-16T23:28:34.612Z,46.75
2023-03-16T23:31:23.560Z,50.08
2023-03-16T23:33:56.994Z,47.38
2023-03-16T23:36:36.595Z,44.42
2023-03-16T23:39:23.570Z,43.20
2023-03-16T23:42:10.592Z,36.95
2023-03-16T23:44:50.574Z,34.30
2023-03-16T23:47:44.588Z,39.20
2023-03-16T23:50:35.591Z,43.33
2023-03-16T23:53:16.609Z,42.65
2023-03-16T23:56:10.607Z,39.58
2023-03-16T23:58:57.577Z,31.67
